Stoumont, Belgium
Current Conditions -  °F | °C
As of 2:33 AM on Tuesday 25 Nov 2014 (Local Time) from EBLB Reporting Station
Clear Clear  
Wind Chill: 24°   Ceiling: Unl
Heat Index: 30°   Visibility: 4mi
Dew Point: 28°   Wind: 6mph
Humidity: 93%   Direction: 90°E
Pressure: 30.27"   Gusts: NA
Location:  50.41°N, 5.81°E
Report Text: EBLB 250133Z AUTO 09005KT 7000 NCD M01/M02 Q1025 WHT
Loading
Personal Weather Stations






























Interactive Weather Map New forecast layout! Learn more

10-Day Weather Forecast

Advertisements
Track Severe Weather on mobile